Terminal Aerodrome Forecast
Issued by NWS

Home | Current Version | Previous Version | Text Only | Print | Product List | Glossary On
Versions: 1 2 3 4 5 6 7 8 9 10 11 12 13 14 15 16 17 18 19 20 21 22 23 24 25 26 27 28 29 30
000
FTUS46 KPQR 241120
TAFONP
TAF
KONP 241120Z 2412/2512 02008G15KT P6SM SCT025
     FM241600 35010G18KT P6SM BKN025 BKN045
     FM242000 35015G25KT P6SM BKN030 BKN050
     FM250400 35008KT P6SM OVC025=

USA.gov is the U.S. government's official web portal to all federal, state and local government web resources and services.